Time,TemperatureF,DewpointF,PressureIn,WindDirection,WindDirectionDegrees,WindSpeedMPH,WindSpeedGustMPH,Humidity,HourlyPrecipIn,Conditions,Clouds,dailyrainin,SoftwareType,DateUTC
2013-01-22 00:00:00,24.3,14.6,29.85,NW,317,5.0,10.0,66,0.00,,---,0.00,VWS V14.01,2013-01-22 05:00:00,
2013-01-22 00:01:00,24.3,14.2,29.85,West,273,3.0,10.0,65,0.00,,---,0.00,VWS V14.01,2013-01-22 05:01:00,
2013-01-22 00:05:00,24.3,13.5,29.85,WNW,298,9.0,10.0,63,0.00,,---,0.00,VWS V14.01,2013-01-22 05:05:00,
2013-01-22 00:10:00,24.2,12.7,29.85,NW,315,1.0,10.0,61,0.00,,---,0.00,VWS V14.01,2013-01-22 05:10:00,
2013-01-22 00:15:00,24.1,12.6,29.85,NNE,32,5.0,10.0,61,0.00,,---,0.00,VWS V14.01,2013-01-22 05:15:00,
2013-01-22 00:20:00,24.0,11.8,29.85,WNW,290,3.0,10.0,59,0.00,,---,0.00,VWS V14.01,2013-01-22 05:20:00,
2013-01-22 00:25:00,23.9,11.7,29.85,NW,325,1.0,10.0,59,0.00,,---,0.00,VWS V14.01,2013-01-22 05:25:00,
2013-01-22 00:30:00,23.7,11.5,29.85,NNW,328,3.0,10.0,59,0.00,,---,0.00,VWS V14.01,2013-01-22 05:30:00,
2013-01-22 00:35:00,23.6,11.8,29.85,WNW,291,2.0,4.0,60,0.00,,---,0.00,VWS V14.01,2013-01-22 05:35:00,
2013-01-22 00:40:00,23.5,10.9,29.85,NW,309,3.0,8.0,58,0.00,,---,0.00,VWS V14.01,2013-01-22 05:40:00,
2013-01-22 00:45:00,23.4,10.8,29.85,West,271,5.0,8.0,58,0.00,,---,0.00,VWS V14.01,2013-01-22 05:45:00,
2013-01-22 00:50:00,23.4,10.8,29.85,West,259,5.0,8.0,58,0.00,,---,0.00,VWS V14.01,2013-01-22 05:50:00,
2013-01-22 00:55:00,23.3,10.7,29.85,NNW,330,0.0,8.0,58,0.00,,---,0.00,VWS V14.01,2013-01-22 05:55:00,
2013-01-22 01:00:00,23.2,10.2,29.85,West,269,5.0,8.0,57,0.00,,---,0.00,VWS V14.01,2013-01-22 06:00:00,
2013-01-22 01:05:00,23.2,10.2,29.85,WSW,239,4.0,8.0,57,0.00,,---,0.00,VWS V14.01,2013-01-22 06:05:00,
2013-01-22 01:10:00,23.1,9.8,29.86,NW,304,3.0,8.0,56,0.00,,---,0.00,VWS V14.01,2013-01-22 06:10:00,
2013-01-22 01:15:00,23.1,8.9,29.86,NW,316,6.0,11.0,54,0.00,,---,0.00,VWS V14.01,2013-01-22 06:15:00,
2013-01-22 01:20:00,23.1,8.5,29.86,West,276,5.0,11.0,53,0.00,,---,0.00,VWS V14.01,2013-01-22 06:20:00,
2013-01-22 01:25:00,23.0,8.4,29.86,NW,325,6.0,11.0,53,0.00,,---,0.00,VWS V14.01,2013-01-22 06:25:00,
2013-01-22 01:30:00,22.9,9.2,29.87,West,280,2.0,11.0,55,0.00,,---,0.00,VWS V14.01,2013-01-22 06:30:00,
2013-01-22 01:35:00,22.8,7.8,29.87,West,276,6.0,12.0,52,0.00,,---,0.00,VWS V14.01,2013-01-22 06:35:00,
2013-01-22 01:40:00,22.7,7.3,29.87,WNW,295,6.0,12.0,51,0.00,,---,0.00,VWS V14.01,2013-01-22 06:40:00,
2013-01-22 01:45:00,22.7,8.1,29.87,NNW,334,2.0,12.0,53,0.00,,---,0.00,VWS V14.01,2013-01-22 06:45:00,
2013-01-22 01:50:00,22.5,7.1,29.88,WSW,246,2.0,12.0,51,0.00,,---,0.00,VWS V14.01,2013-01-22 06:50:00,
2013-01-22 01:55:00,22.5,7.1,29.88,WNW,290,4.0,12.0,51,0.00,,---,0.00,VWS V14.01,2013-01-22 06:55:00,
2013-01-22 02:00:00,22.3,6.9,29.88,NW,307,4.0,12.0,51,0.00,,---,0.00,VWS V14.01,2013-01-22 07:00:00,
2013-01-22 02:05:00,22.3,6.5,29.88,WNW,287,1.0,10.0,50,0.00,,---,0.00,VWS V14.01,2013-01-22 07:05:00,
2013-01-22 02:10:00,22.2,7.3,29.88,NNW,343,3.0,10.0,52,0.00,,---,0.00,VWS V14.01,2013-01-22 07:10:00,
2013-01-22 02:15:00,22.1,6.8,29.89,WNW,295,3.0,10.0,51,0.00,,---,0.00,VWS V14.01,2013-01-22 07:15:00,
2013-01-22 02:20:00,22.0,6.7,29.88,WNW,288,5.0,10.0,51,0.00,,---,0.00,VWS V14.01,2013-01-22 07:20:00,
2013-01-22 02:25:00,21.9,7.0,29.89,West,275,5.0,10.0,52,0.00,,---,0.00,VWS V14.01,2013-01-22 07:25:00,
2013-01-22 02:30:00,21.8,6.9,29.89,WNW,302,4.0,10.0,52,0.00,,---,0.00,VWS V14.01,2013-01-22 07:30:00,
2013-01-22 02:35:00,21.7,6.4,29.89,NW,321,4.0,11.0,51,0.00,,---,0.00,VWS V14.01,2013-01-22 07:35:00,
2013-01-22 02:40:00,21.7,6.4,29.89,WSW,256,1.0,11.0,51,0.00,,---,0.00,VWS V14.01,2013-01-22 07:40:00,
2013-01-22 02:45:00,21.6,6.3,29.89,NW,314,1.0,11.0,51,0.00,,---,0.00,VWS V14.01,2013-01-22 07:45:00,
2013-01-22 02:50:00,21.5,6.2,29.89,WSW,246,2.0,11.0,51,0.00,,---,0.00,VWS V14.01,2013-01-22 07:50:00,
2013-01-22 02:55:00,21.4,6.5,29.89,NE,34,0.0,11.0,52,0.00,,---,0.00,VWS V14.01,2013-01-22 07:55:00,
2013-01-22 03:00:00,21.3,6.0,29.89,NW,309,1.0,11.0,51,0.00,,---,0.00,VWS V14.01,2013-01-22 08:00:00,
2013-01-22 03:05:00,21.2,6.3,29.89,NW,305,3.0,11.0,52,0.00,,---,0.00,VWS V14.01,2013-01-22 08:05:00,
2013-01-22 03:10:00,21.1,6.2,29.89,WNW,302,0.0,11.0,52,0.00,,---,0.00,VWS V14.01,2013-01-22 08:10:00,
2013-01-22 03:15:00,20.9,6.9,29.89,West,262,3.0,11.0,54,0.00,,---,0.00,VWS V14.01,2013-01-22 08:15:00,
2013-01-22 03:20:00,20.9,6.5,29.89,West,281,1.0,11.0,53,0.00,,---,0.00,VWS V14.01,2013-01-22 08:20:00,
2013-01-22 03:25:00,20.8,6.4,29.89,NNW,338,1.0,11.0,53,0.00,,---,0.00,VWS V14.01,2013-01-22 08:25:00,
2013-01-22 03:30:00,20.7,6.3,29.90,NNW,344,1.0,11.0,53,0.00,,---,0.00,VWS V14.01,2013-01-22 08:30:00,
2013-01-22 03:35:00,20.7,7.1,29.90,NNW,335,1.0,4.0,55,0.00,,---,0.00,VWS V14.01,2013-01-22 08:35:00,
2013-01-22 03:40:00,20.6,6.2,29.90,WNW,302,3.0,10.0,53,0.00,,---,0.00,VWS V14.01,2013-01-22 08:40:00,
2013-01-22 03:45:00,20.5,6.1,29.90,West,278,7.0,10.0,53,0.00,,---,0.00,VWS V14.01,2013-01-22 08:45:00,
2013-01-22 03:50:00,20.5,6.1,29.90,NW,304,1.0,10.0,53,0.00,,---,0.00,VWS V14.01,2013-01-22 08:50:00,
2013-01-22 03:55:00,20.4,6.0,29.90,NW,316,3.0,10.0,53,0.00,,---,0.00,VWS V14.01,2013-01-22 08:55:00,
2013-01-22 04:00:00,20.4,6.0,29.91,West,274,2.0,10.0,53,0.00,,---,0.00,VWS V14.01,2013-01-22 09:00:00,
2013-01-22 04:05:00,20.3,6.3,29.91,NNW,333,1.0,7.0,54,0.00,,---,0.00,VWS V14.01,2013-01-22 09:05:00,
2013-01-22 04:10:00,20.2,6.2,29.91,NW,316,0.0,7.0,54,0.00,,---,0.00,VWS V14.01,2013-01-22 09:10:00,
2013-01-22 04:15:00,20.1,6.9,29.91,West,278,5.0,8.0,56,0.00,,---,0.00,VWS V14.01,2013-01-22 09:15:00,
2013-01-22 04:20:00,20.1,6.9,29.91,WNW,284,2.0,8.0,56,0.00,,---,0.00,VWS V14.01,2013-01-22 09:20:00,
2013-01-22 04:25:00,20.0,6.4,29.91,West,271,0.0,8.0,55,0.00,,---,0.00,VWS V14.01,2013-01-22 09:25:00,
2013-01-22 04:30:00,20.0,6.8,29.92,West,264,1.0,8.0,56,0.00,,---,0.00,VWS V14.01,2013-01-22 09:30:00,
2013-01-22 04:35:00,19.9,6.8,29.92,WNW,290,2.0,11.0,56,0.00,,---,0.00,VWS V14.01,2013-01-22 09:35:00,
2013-01-22 04:40:00,19.9,6.8,29.92,SW,222,5.0,11.0,56,0.00,,---,0.00,VWS V14.01,2013-01-22 09:40:00,
2013-01-22 04:45:00,19.8,6.7,29.92,West,280,2.0,13.0,56,0.00,,---,0.00,VWS V14.01,2013-01-22 09:45:00,
2013-01-22 04:50:00,19.7,6.6,29.92,NW,307,4.0,13.0,56,0.00,,---,0.00,VWS V14.01,2013-01-22 09:50:00,
2013-01-22 04:55:00,19.7,6.9,29.93,WNW,298,5.0,14.0,57,0.00,,---,0.00,VWS V14.01,2013-01-22 09:55:00,
2013-01-22 05:00:00,19.6,6.5,29.93,SW,235,5.0,14.0,56,0.00,,---,0.00,VWS V14.01,2013-01-22 10:00:00,
2013-01-22 05:05:00,19.6,6.8,29.94,West,263,6.0,9.0,57,0.00,,---,0.00,VWS V14.01,2013-01-22 10:05:00,
2013-01-22 05:10:00,19.5,6.8,29.95,WNW,298,2.0,9.0,57,0.00,,---,0.00,VWS V14.01,2013-01-22 10:10:00,
2013-01-22 05:15:00,19.5,6.8,29.95,NW,323,1.0,9.0,57,0.00,,---,0.00,VWS V14.01,2013-01-22 10:15:00,
2013-01-22 05:20:00,19.4,7.1,29.95,WNW,286,2.0,9.0,58,0.00,,---,0.00,VWS V14.01,2013-01-22 10:20:00,
2013-01-22 05:25:00,19.3,6.6,29.95,NW,304,4.0,10.0,57,0.00,,---,0.00,VWS V14.01,2013-01-22 10:25:00,
2013-01-22 05:30:00,19.3,6.6,29.95,West,266,10.0,10.0,57,0.00,,---,0.00,VWS V14.01,2013-01-22 10:30:00,
2013-01-22 05:35:00,19.2,7.2,29.96,North,10,2.0,11.0,59,0.00,,---,0.00,VWS V14.01,2013-01-22 10:35:00,
2013-01-22 05:40:00,18.9,9.8,29.96,North,9,4.0,11.0,67,0.00,,---,0.00,VWS V14.01,2013-01-22 10:40:00,
2013-01-22 05:45:00,18.4,10.3,29.97,North,6,1.0,11.0,70,0.00,,---,0.00,VWS V14.01,2013-01-22 10:45:00,
2013-01-22 05:50:00,18.2,10.4,29.97,WSW,243,1.0,11.0,71,0.00,,---,0.00,VWS V14.01,2013-01-22 10:50:00,
2013-01-22 05:55:00,18.1,10.0,29.98,SE,138,1.0,11.0,70,0.00,,---,0.00,VWS V14.01,2013-01-22 10:55:00,
2013-01-22 06:00:00,18.1,10.0,29.98,WNW,285,4.0,11.0,70,0.00,,---,0.00,VWS V14.01,2013-01-22 11:00:00,
2013-01-22 06:01:00,18.1,10.0,29.98,WNW,285,4.0,4.0,70,0.00,,---,0.00,VWS V14.01,2013-01-22 11:01:00,
2013-01-22 06:06:00,17.8,10.9,29.98,NNW,347,0.0,6.0,74,0.00,,---,0.00,VWS V14.01,2013-01-22 11:06:00,
2013-01-22 06:11:00,17.6,11.0,29.98,WNW,295,0.0,8.0,75,0.00,,---,0.00,VWS V14.01,2013-01-22 11:11:00,
2013-01-22 06:16:00,17.4,11.1,29.98,WSW,240,1.0,8.0,76,0.00,,---,0.00,VWS V14.01,2013-01-22 11:16:00,
2013-01-22 06:21:00,17.3,10.8,29.98,NNW,333,1.0,8.0,75,0.00,,---,0.00,VWS V14.01,2013-01-22 11:21:00,
2013-01-22 06:26:00,17.2,9.7,29.98,WNW,303,2.0,8.0,72,0.00,,---,0.00,VWS V14.01,2013-01-22 11:26:00,
2013-01-22 06:30:00,17.3,9.5,29.98,West,278,3.0,8.0,71,0.00,,---,0.00,VWS V14.01,2013-01-22 11:30:00,
2013-01-22 06:31:00,17.3,9.5,29.98,SW,236,6.0,6.0,71,0.00,,---,0.00,VWS V14.01,2013-01-22 11:31:00,
2013-01-22 06:36:00,17.3,8.9,29.99,WSW,243,6.0,7.0,69,0.00,,---,0.00,VWS V14.01,2013-01-22 11:36:00,
2013-01-22 06:42:00,17.3,8.2,29.99,WNW,285,1.0,8.0,67,0.00,,---,0.00,VWS V14.01,2013-01-22 11:42:00,
2013-01-22 06:47:00,17.2,7.1,29.99,NW,315,5.0,8.0,64,0.00,,---,0.00,VWS V14.01,2013-01-22 11:47:00,
2013-01-22 06:52:00,17.2,6.8,29.99,NNE,19,5.0,8.0,63,0.00,,---,0.00,VWS V14.01,2013-01-22 11:52:00,
2013-01-22 06:57:00,17.1,5.6,30.00,WNW,298,6.0,13.0,60,0.00,,---,0.00,VWS V14.01,2013-01-22 11:57:00,
2013-01-22 07:00:00,17.1,5.2,30.00,West,275,8.0,13.0,59,0.00,,---,0.00,VWS V14.01,2013-01-22 12:00:00,
2013-01-22 07:02:00,17.1,4.9,30.00,North,1,4.0,11.0,58,0.00,,---,0.00,VWS V14.01,2013-01-22 12:02:00,
2013-01-22 07:07:00,17.1,4.9,30.00,West,267,7.0,11.0,58,0.00,,---,0.00,VWS V14.01,2013-01-22 12:07:00,
2013-01-22 07:12:00,17.0,4.4,30.00,NW,323,3.0,11.0,57,0.00,,---,0.00,VWS V14.01,2013-01-22 12:12:00,
2013-01-22 07:17:00,16.9,4.3,30.00,NNW,340,3.0,11.0,57,0.00,,---,0.00,VWS V14.01,2013-01-22 12:17:00,
2013-01-22 07:22:00,16.8,3.8,30.00,WNW,288,2.0,11.0,56,0.00,,---,0.00,VWS V14.01,2013-01-22 12:22:00,
2013-01-22 07:27:00,16.8,4.2,30.01,WNW,302,1.0,11.0,57,0.00,,---,0.00,VWS V14.01,2013-01-22 12:27:00,
2013-01-22 07:30:00,16.8,4.2,30.00,West,272,5.0,11.0,57,0.00,,---,0.00,VWS V14.01,2013-01-22 12:30:00,
2013-01-22 07:32:00,16.8,4.6,30.01,WNW,283,5.0,6.0,58,0.00,,---,0.00,VWS V14.01,2013-01-22 12:32:00,
2013-01-22 07:37:00,16.8,3.8,30.01,WNW,293,5.0,7.0,56,0.00,,---,0.00,VWS V14.01,2013-01-22 12:37:00,
2013-01-22 07:42:00,16.7,3.7,30.01,West,271,3.0,7.0,56,0.00,,---,0.00,VWS V14.01,2013-01-22 12:42:00,
2013-01-22 07:47:00,16.7,3.7,30.01,West,276,4.0,8.0,56,0.00,,---,0.00,VWS V14.01,2013-01-22 12:47:00,
2013-01-22 07:52:00,16.7,3.3,30.02,NW,312,6.0,15.0,55,0.00,,---,0.00,VWS V14.01,2013-01-22 12:52:00,
2013-01-22 07:57:00,16.6,3.7,30.02,West,274,6.0,15.0,56,0.00,,---,0.00,VWS V14.01,2013-01-22 12:57:00,
2013-01-22 08:00:00,16.7,3.7,30.02,West,276,6.0,15.0,56,0.00,,---,0.00,VWS V14.01,2013-01-22 13:00:00,
2013-01-22 08:02:00,16.7,3.3,30.02,West,281,5.0,6.0,55,0.00,,---,0.00,VWS V14.01,2013-01-22 13:02:00,
2013-01-22 08:07:00,16.7,3.3,30.03,WNW,285,5.0,7.0,55,0.00,,---,0.00,VWS V14.01,2013-01-22 13:07:00,
2013-01-22 08:12:00,16.6,2.5,30.03,West,270,3.0,12.0,53,0.00,,---,0.00,VWS V14.01,2013-01-22 13:12:00,
2013-01-22 08:17:00,16.6,2.5,30.03,WNW,298,3.0,12.0,53,0.00,,---,0.00,VWS V14.01,2013-01-22 13:17:00,
2013-01-22 08:22:00,16.7,2.5,30.03,WNW,297,5.0,12.0,53,0.00,,---,0.00,VWS V14.01,2013-01-22 13:22:00,
2013-01-22 08:27:00,16.7,2.1,30.04,NW,325,7.0,12.0,52,0.00,,---,0.00,VWS V14.01,2013-01-22 13:27:00,
2013-01-22 08:30:00,16.6,2.0,30.04,NW,304,5.0,12.0,52,0.00,,---,0.00,VWS V14.01,2013-01-22 13:30:00,
2013-01-22 08:32:00,16.6,2.0,30.03,NW,307,5.0,12.0,52,0.00,,---,0.00,VWS V14.01,2013-01-22 13:32:00,
2013-01-22 08:37:00,16.6,2.5,30.03,NW,317,5.0,12.0,53,0.00,,---,0.00,VWS V14.01,2013-01-22 13:37:00,
2013-01-22 08:42:00,16.8,3.5,30.03,North,6,2.0,12.0,55,0.00,,---,0.00,VWS V14.01,2013-01-22 13:42:00,
2013-01-22 08:47:00,17.0,3.2,30.03,WNW,283,4.0,12.0,54,0.00,,---,0.00,VWS V14.01,2013-01-22 13:47:00,
2013-01-22 08:52:00,17.1,4.1,30.04,WSW,252,4.0,12.0,56,0.00,,---,0.00,VWS V14.01,2013-01-22 13:52:00,
2013-01-22 08:57:00,17.1,3.7,30.04,NNW,335,3.0,12.0,55,0.00,,---,0.00,VWS V14.01,2013-01-22 13:57:00,
2013-01-22 09:00:00,17.1,3.7,30.04,NNW,341,4.0,12.0,55,0.00,,---,0.00,VWS V14.01,2013-01-22 14:00:00,
2013-01-22 09:02:00,17.0,3.6,30.04,WNW,302,5.0,6.0,55,0.00,,---,0.00,VWS V14.01,2013-01-22 14:02:00,
2013-01-22 09:07:00,16.9,3.9,30.04,West,278,4.0,9.0,56,0.00,,---,0.00,VWS V14.01,2013-01-22 14:07:00,
2013-01-22 09:12:00,17.1,4.1,30.05,WNW,298,2.0,9.0,56,0.00,,---,0.00,VWS V14.01,2013-01-22 14:12:00,
2013-01-22 09:17:00,17.3,3.5,30.05,WNW,283,10.0,11.0,54,0.00,,---,0.00,VWS V14.01,2013-01-22 14:17:00,
2013-01-22 09:22:00,17.4,4.8,30.05,SW,232,6.0,13.0,57,0.00,,---,0.00,VWS V14.01,2013-01-22 14:22:00,
2013-01-22 09:27:00,17.5,4.9,30.05,WNW,290,5.0,13.0,57,0.00,,---,0.00,VWS V14.01,2013-01-22 14:27:00,
2013-01-22 09:30:00,17.4,5.9,30.06,West,262,8.0,13.0,60,0.00,,---,0.00,VWS V14.01,2013-01-22 14:30:00,
2013-01-22 09:32:00,17.3,7.6,30.05,West,263,3.0,8.0,65,0.00,,---,0.00,VWS V14.01,2013-01-22 14:32:00,
2013-01-22 09:37:00,16.9,9.1,30.05,West,281,3.0,8.0,71,0.00,,---,0.00,VWS V14.01,2013-01-22 14:37:00,
2013-01-22 09:42:00,16.5,10.3,30.06,West,264,1.0,9.0,76,0.00,,---,0.00,VWS V14.01,2013-01-22 14:42:00,
2013-01-22 09:47:00,16.1,10.5,30.07,West,278,3.0,10.0,78,0.00,,---,0.00,VWS V14.01,2013-01-22 14:47:00,
2013-01-22 09:52:00,15.7,10.1,30.07,North,352,3.0,10.0,78,0.00,,---,0.00,VWS V14.01,2013-01-22 14:52:00,
2013-01-22 09:57:00,15.6,9.7,30.07,WSW,245,4.0,10.0,77,0.00,,---,0.00,VWS V14.01,2013-01-22 14:57:00,
2013-01-22 10:00:00,15.5,9.9,30.06,WNW,295,1.0,10.0,78,0.00,,---,0.00,VWS V14.01,2013-01-22 15:00:00,
2013-01-22 10:02:00,15.5,9.9,30.07,NW,305,1.0,5.0,78,0.00,,---,0.00,VWS V14.01,2013-01-22 15:02:00,
2013-01-22 10:07:00,15.7,9.8,30.06,WNW,282,2.0,8.0,77,0.00,,---,0.00,VWS V14.01,2013-01-22 15:07:00,
2013-01-22 10:12:00,15.8,9.6,30.07,NNW,330,4.0,8.0,76,0.00,,---,0.00,VWS V14.01,2013-01-22 15:12:00,
2013-01-22 10:17:00,15.5,9.3,30.07,WNW,299,1.0,13.0,76,0.00,,---,0.00,VWS V14.01,2013-01-22 15:17:00,
2013-01-22 10:22:00,15.5,9.9,30.07,NNW,347,3.0,13.0,78,0.00,,---,0.00,VWS V14.01,2013-01-22 15:22:00,
2013-01-22 10:27:00,15.9,9.4,30.07,NW,309,5.0,13.0,75,0.00,,---,0.00,VWS V14.01,2013-01-22 15:27:00,
2013-01-22 10:30:00,16.1,9.3,30.07,NE,43,2.0,13.0,74,0.00,,---,0.00,VWS V14.01,2013-01-22 15:30:00,
2013-01-22 10:32:00,16.3,9.5,30.07,NNW,344,4.0,8.0,74,0.00,,---,0.00,VWS V14.01,2013-01-22 15:32:00,
2013-01-22 10:37:00,16.7,10.2,30.07,NNW,339,1.0,8.0,75,0.00,,---,0.00,VWS V14.01,2013-01-22 15:37:00,
2013-01-22 10:42:00,16.8,9.4,30.06,WNW,302,4.0,9.0,72,0.00,,---,0.00,VWS V14.01,2013-01-22 15:42:00,
2013-01-22 10:47:00,16.4,8.3,30.07,West,262,11.0,12.0,70,0.00,,---,0.00,VWS V14.01,2013-01-22 15:47:00,
2013-01-22 10:52:00,16.4,8.7,30.06,WNW,283,5.0,12.0,71,0.00,,---,0.00,VWS V14.01,2013-01-22 15:52:00,
2013-01-22 10:57:00,16.5,7.8,30.06,NW,312,3.0,12.0,68,0.00,,---,0.00,VWS V14.01,2013-01-22 15:57:00,
2013-01-22 11:00:00,16.6,7.6,30.06,WNW,293,2.0,12.0,67,0.00,,---,0.00,VWS V14.01,2013-01-22 16:00:00,
2013-01-22 11:02:00,16.6,7.6,30.06,West,260,4.0,5.0,67,0.00,,---,0.00,VWS V14.01,2013-01-22 16:02:00,
2013-01-22 11:07:00,16.8,4.6,30.06,NW,319,6.0,11.0,58,0.00,,---,0.00,VWS V14.01,2013-01-22 16:07:00,
2013-01-22 11:12:00,17.0,2.0,30.06,NW,307,2.0,15.0,51,0.00,,---,0.00,VWS V14.01,2013-01-22 16:12:00,
2013-01-22 11:17:00,17.6,1.3,30.05,NW,321,10.0,15.0,48,0.00,,---,0.00,VWS V14.01,2013-01-22 16:17:00,
2013-01-22 11:22:00,17.5,-1.7,30.05,NW,312,6.0,17.0,42,0.00,,---,0.00,VWS V14.01,2013-01-22 16:22:00,
2013-01-22 11:27:00,17.6,-2.1,30.05,WNW,285,7.0,17.0,41,0.00,,---,0.00,VWS V14.01,2013-01-22 16:27:00,
2013-01-22 11:30:00,17.8,-1.4,30.05,WNW,294,3.0,17.0,42,0.00,,---,0.00,VWS V14.01,2013-01-22 16:30:00,
2013-01-22 11:32:00,18.0,-1.2,30.05,WNW,294,5.0,9.0,42,0.00,,---,0.00,VWS V14.01,2013-01-22 16:32:00,
2013-01-22 11:37:00,18.1,-1.6,30.05,WNW,302,14.0,17.0,41,0.00,,---,0.00,VWS V14.01,2013-01-22 16:37:00,
2013-01-22 11:42:00,18.2,-1.5,30.05,West,260,5.0,17.0,41,0.00,,---,0.00,VWS V14.01,2013-01-22 16:42:00,
2013-01-22 11:47:00,18.6,-1.2,30.04,North,356,1.0,17.0,41,0.00,,---,0.00,VWS V14.01,2013-01-22 16:47:00,
2013-01-22 11:52:00,19.2,0.9,30.04,NE,46,1.0,17.0,44,0.00,,---,0.00,VWS V14.01,2013-01-22 16:52:00,
2013-01-22 11:58:00,19.3,0.0,30.04,NW,325,11.0,19.0,42,0.00,,---,0.00,VWS V14.01,2013-01-22 16:58:00,
2013-01-22 12:00:00,18.8,-2.6,30.05,NW,311,6.0,19.0,38,0.00,,---,0.00,VWS V14.01,2013-01-22 17:00:00,
2013-01-22 12:03:00,18.5,-2.9,30.05,WSW,246,14.0,18.0,38,0.00,,---,0.00,VWS V14.01,2013-01-22 17:03:00,
2013-01-22 12:08:00,18.1,-2.7,30.04,SSW,201,4.0,18.0,39,0.00,,---,0.00,VWS V14.01,2013-01-22 17:08:00,
2013-01-22 12:13:00,17.9,-4.0,30.04,West,263,7.0,18.0,37,0.00,,---,0.00,VWS V14.01,2013-01-22 17:13:00,
2013-01-22 12:17:00,18.0,-4.4,30.04,WSW,252,15.0,18.0,36,0.00,,---,0.00,VWS V14.01,2013-01-22 17:17:00,
2013-01-22 12:23:00,18.3,-3.0,30.04,West,267,14.0,18.0,38,0.00,,---,0.00,VWS V14.01,2013-01-22 17:23:00,
2013-01-22 12:27:00,18.5,-4.0,30.03,WNW,295,3.0,18.0,36,0.00,,---,0.00,VWS V14.01,2013-01-22 17:27:00,
2013-01-22 12:30:00,18.7,-4.4,30.03,WSW,238,4.0,18.0,35,0.00,,---,0.00,VWS V14.01,2013-01-22 17:30:00,
2013-01-22 12:32:00,18.7,-3.8,30.03,West,266,10.0,16.0,36,0.00,,---,0.00,VWS V14.01,2013-01-22 17:32:00,
2013-01-22 12:38:00,18.6,-4.5,30.03,NW,315,6.0,16.0,35,0.00,,---,0.00,VWS V14.01,2013-01-22 17:38:00,
2013-01-22 12:43:00,18.5,-5.2,30.03,NW,325,7.0,17.0,34,0.00,,---,0.00,VWS V14.01,2013-01-22 17:43:00,
2013-01-22 12:48:00,18.6,-4.5,30.03,WNW,294,3.0,17.0,35,0.00,,---,0.00,VWS V14.01,2013-01-22 17:48:00,
2013-01-22 12:53:00,18.8,-4.3,30.03,North,349,11.0,17.0,35,0.00,,---,0.00,VWS V14.01,2013-01-22 17:53:00,
2013-01-22 12:58:00,18.6,-5.1,30.03,SW,214,3.0,17.0,34,0.00,,---,0.00,VWS V14.01,2013-01-22 17:58:00,
2013-01-22 13:00:00,18.7,-5.0,30.02,West,262,14.0,17.0,34,0.00,,---,0.00,VWS V14.01,2013-01-22 18:00:00,
2013-01-22 13:03:00,18.7,-4.4,30.03,SW,226,9.0,14.0,35,0.00,,---,0.00,VWS V14.01,2013-01-22 18:03:00,
2013-01-22 13:08:00,18.8,-4.3,30.03,WSW,246,13.0,16.0,35,0.00,,---,0.00,VWS V14.01,2013-01-22 18:08:00,
2013-01-22 13:13:00,18.8,-4.9,30.03,NW,304,15.0,16.0,34,0.00,,---,0.00,VWS V14.01,2013-01-22 18:13:00,
2013-01-22 13:18:00,18.8,-4.3,30.03,NNE,15,4.0,16.0,35,0.00,,---,0.00,VWS V14.01,2013-01-22 18:18:00,
2013-01-22 13:23:00,19.0,-4.7,30.03,NNW,344,7.0,16.0,34,0.00,,---,0.00,VWS V14.01,2013-01-22 18:23:00,
2013-01-22 13:28:00,19.1,-3.5,30.03,NW,319,3.0,16.0,36,0.00,,---,0.00,VWS V14.01,2013-01-22 18:28:00,
2013-01-22 13:30:00,19.2,-4.0,30.03,West,262,8.0,16.0,35,0.00,,---,0.00,VWS V14.01,2013-01-22 18:30:00,
2013-01-22 13:33:00,19.2,-4.6,30.03,NNW,327,5.0,11.0,34,0.00,,---,0.00,VWS V14.01,2013-01-22 18:33:00,
2013-01-22 13:38:00,19.0,-5.3,30.03,NW,323,13.0,17.0,33,0.00,,---,0.00,VWS V14.01,2013-01-22 18:38:00,
2013-01-22 13:43:00,18.7,-4.4,30.03,NNW,329,7.0,17.0,35,0.00,,---,0.00,VWS V14.01,2013-01-22 18:43:00,
2013-01-22 13:48:00,18.8,-3.7,30.03,North,4,5.0,17.0,36,0.00,,---,0.00,VWS V14.01,2013-01-22 18:48:00,
2013-01-22 13:53:00,18.9,-4.2,30.03,West,263,9.0,17.0,35,0.00,,---,0.00,VWS V14.01,2013-01-22 18:53:00,
2013-01-22 13:58:00,18.7,-5.0,30.03,NW,305,5.0,17.0,34,0.00,,---,0.00,VWS V14.01,2013-01-22 18:58:00,
2013-01-22 14:00:00,18.7,-4.4,30.04,WNW,290,6.0,17.0,35,0.00,,---,0.00,VWS V14.01,2013-01-22 19:00:00,
2013-01-22 14:03:00,18.7,-4.4,30.03,WNW,283,7.0,15.0,35,0.00,,---,0.00,VWS V14.01,2013-01-22 19:03:00,
2013-01-22 14:08:00,18.8,-3.7,30.04,SSE,159,5.0,15.0,36,0.00,,---,0.00,VWS V14.01,2013-01-22 19:08:00,
2013-01-22 14:13:00,18.6,-5.7,30.04,West,272,7.0,22.0,33,0.00,,---,0.00,VWS V14.01,2013-01-22 19:13:00,
2013-01-22 14:18:00,18.5,-4.6,30.04,West,263,1.0,22.0,35,0.00,,---,0.00,VWS V14.01,2013-01-22 19:18:00,
2013-01-22 14:23:00,18.5,-6.4,30.04,NW,310,4.0,22.0,32,0.00,,---,0.00,VWS V14.01,2013-01-22 19:23:00,
2013-01-22 14:28:00,18.4,-5.3,30.04,WNW,289,6.0,22.0,34,0.00,,---,0.00,VWS V14.01,2013-01-22 19:28:00,
2013-01-22 14:30:00,18.5,-4.6,30.04,NW,326,5.0,22.0,35,0.00,,---,0.00,VWS V14.01,2013-01-22 19:30:00,
2013-01-22 14:33:00,18.6,-4.5,30.05,NW,319,6.0,8.0,35,0.00,,---,0.00,VWS V14.01,2013-01-22 19:33:00,
2013-01-22 14:38:00,18.7,-5.0,30.05,WNW,289,6.0,14.0,34,0.00,,---,0.00,VWS V14.01,2013-01-22 19:38:00,
2013-01-22 14:43:00,18.7,-5.0,30.05,WNW,298,11.0,14.0,34,0.00,,---,0.00,VWS V14.01,2013-01-22 19:43:00,
2013-01-22 14:48:00,18.6,-5.1,30.05,West,267,8.0,14.0,34,0.00,,---,0.00,VWS V14.01,2013-01-22 19:48:00,
2013-01-22 14:53:00,18.8,-4.3,30.05,WNW,292,9.0,14.0,35,0.00,,---,0.00,VWS V14.01,2013-01-22 19:53:00,
2013-01-22 14:58:00,18.8,-4.3,30.05,NW,323,17.0,17.0,35,0.00,,---,0.00,VWS V14.01,2013-01-22 19:58:00,
2013-01-22 15:00:00,18.8,-5.5,30.05,West,265,14.0,17.0,33,0.00,,---,0.00,VWS V14.01,2013-01-22 20:00:00,
2013-01-22 15:03:00,18.6,-5.7,30.05,WNW,293,6.0,14.0,33,0.00,,---,0.00,VWS V14.01,2013-01-22 20:03:00,
2013-01-22 15:08:00,18.6,-5.1,30.05,West,276,9.0,14.0,34,0.00,,---,0.00,VWS V14.01,2013-01-22 20:08:00,
2013-01-22 15:13:00,19.0,-6.0,30.06,NNW,335,7.0,16.0,32,0.00,,---,0.00,VWS V14.01,2013-01-22 20:13:00,
2013-01-22 15:18:00,18.8,-4.9,30.05,West,277,7.0,16.0,34,0.00,,---,0.00,VWS V14.01,2013-01-22 20:18:00,
2013-01-22 15:23:00,18.9,-4.2,30.06,WNW,297,3.0,16.0,35,0.00,,---,0.00,VWS V14.01,2013-01-22 20:23:00,
2013-01-22 15:28:00,19.1,-3.5,30.06,NW,316,8.0,16.0,36,0.00,,---,0.00,VWS V14.01,2013-01-22 20:28:00,
2013-01-22 15:30:00,19.0,-5.3,30.06,WSW,242,10.0,16.0,33,0.00,,---,0.00,VWS V14.01,2013-01-22 20:30:00,
2013-01-22 15:33:00,18.8,-6.2,30.06,NW,307,2.0,16.0,32,0.00,,---,0.00,VWS V14.01,2013-01-22 20:33:00,
2013-01-22 15:38:00,18.8,-4.9,30.06,West,276,5.0,16.0,34,0.00,,---,0.00,VWS V14.01,2013-01-22 20:38:00,
2013-01-22 15:43:00,18.6,-5.1,30.07,NW,310,8.0,16.0,34,0.00,,---,0.00,VWS V14.01,2013-01-22 20:43:00,
2013-01-22 15:48:00,18.2,-5.4,30.07,NNW,332,7.0,16.0,34,0.00,,---,0.00,VWS V14.01,2013-01-22 20:48:00,
2013-01-22 15:53:00,17.9,-4.5,30.07,North,357,4.0,16.0,36,0.00,,---,0.00,VWS V14.01,2013-01-22 20:53:00,
2013-01-22 15:58:00,17.6,-3.7,30.08,WNW,285,7.0,16.0,38,0.00,,---,0.00,VWS V14.01,2013-01-22 20:58:00,
2013-01-22 16:00:00,17.4,-3.8,30.08,NW,323,7.0,16.0,38,0.00,,---,0.00,VWS V14.01,2013-01-22 21:00:00,
2013-01-22 16:03:00,17.2,-3.5,30.08,WNW,302,2.0,8.0,39,0.00,,---,0.00,VWS V14.01,2013-01-22 21:03:00,
2013-01-22 16:08:00,16.8,-3.3,30.09,NNW,328,3.0,13.0,40,0.00,,---,0.00,VWS V14.01,2013-01-22 21:08:00,
2013-01-22 16:13:00,16.6,-2.5,30.09,WNW,298,7.0,13.0,42,0.00,,---,0.00,VWS V14.01,2013-01-22 21:13:00,
2013-01-22 16:18:00,16.6,-1.5,30.09,West,259,3.0,13.0,44,0.00,,---,0.00,VWS V14.01,2013-01-22 21:18:00,
2013-01-22 16:23:00,16.6,-2.0,30.09,NW,308,5.0,13.0,43,0.00,,---,0.00,VWS V14.01,2013-01-22 21:23:00,
2013-01-22 16:28:00,16.6,-1.0,30.09,WNW,302,4.0,13.0,45,0.00,,---,0.00,VWS V14.01,2013-01-22 21:28:00,
2013-01-22 16:30:00,16.5,-1.1,30.10,NW,316,3.0,13.0,45,0.00,,---,0.00,VWS V14.01,2013-01-22 21:30:00,
2013-01-22 16:31:00,16.5,-0.7,30.10,WNW,297,5.0,8.0,46,0.00,,---,0.00,VWS V14.01,2013-01-22 21:31:00,
2013-01-22 16:37:00,16.0,0.6,30.11,West,260,4.0,16.0,50,0.00,,---,0.00,VWS V14.01,2013-01-22 21:37:00,
2013-01-22 16:42:00,15.7,2.0,30.11,West,266,9.0,18.0,54,0.00,,---,0.00,VWS V14.01,2013-01-22 21:42:00,
2013-01-22 16:47:00,15.6,1.5,30.10,West,259,5.0,18.0,53,0.00,,---,0.00,VWS V14.01,2013-01-22 21:47:00,
2013-01-22 16:52:00,15.6,1.5,30.11,WNW,298,10.0,18.0,53,0.00,,---,0.00,VWS V14.01,2013-01-22 21:52:00,
2013-01-22 16:57:00,15.5,3.0,30.11,WNW,283,6.0,18.0,57,0.00,,---,0.00,VWS V14.01,2013-01-22 21:57:00,
2013-01-22 17:00:00,15.3,3.2,30.12,NNW,346,4.0,18.0,58,0.00,,---,0.00,VWS V14.01,2013-01-22 22:00:00,
2013-01-22 17:02:00,15.3,3.2,30.12,NW,320,5.0,9.0,58,0.00,,---,0.00,VWS V14.01,2013-01-22 22:02:00,
2013-01-22 17:07:00,15.2,3.5,30.12,West,278,1.0,11.0,59,0.00,,---,0.00,VWS V14.01,2013-01-22 22:07:00,
2013-01-22 17:12:00,15.2,3.5,30.12,South,183,1.0,11.0,59,0.00,,---,0.00,VWS V14.01,2013-01-22 22:12:00,
2013-01-22 17:17:00,15.2,2.0,30.12,WSW,252,3.0,11.0,55,0.00,,---,0.00,VWS V14.01,2013-01-22 22:17:00,
2013-01-22 17:22:00,15.3,-0.9,30.12,West,278,6.0,14.0,48,0.00,,---,0.00,VWS V14.01,2013-01-22 22:22:00,
2013-01-22 17:27:00,15.3,0.4,30.13,WNW,297,2.0,14.0,51,0.00,,---,0.00,VWS V14.01,2013-01-22 22:27:00,
2013-01-22 17:30:00,15.3,0.0,30.13,West,262,4.0,14.0,50,0.00,,---,0.00,VWS V14.01,2013-01-22 22:30:00,
2013-01-22 17:32:00,15.3,-0.4,30.13,NW,316,6.0,7.0,49,0.00,,---,0.00,VWS V14.01,2013-01-22 22:32:00,
2013-01-22 17:37:00,15.3,-0.9,30.13,NW,311,2.0,7.0,48,0.00,,---,0.00,VWS V14.01,2013-01-22 22:37:00,
2013-01-22 17:42:00,15.3,-1.3,30.14,WNW,285,4.0,8.0,47,0.00,,---,0.00,VWS V14.01,2013-01-22 22:42:00,
2013-01-22 17:47:00,15.3,-1.8,30.14,West,272,5.0,8.0,46,0.00,,---,0.00,VWS V14.01,2013-01-22 22:47:00,
2013-01-22 17:52:00,15.3,-1.8,30.14,West,271,2.0,8.0,46,0.00,,---,0.00,VWS V14.01,2013-01-22 22:52:00,
2013-01-22 17:57:00,15.3,-1.8,30.15,West,273,1.0,8.0,46,0.00,,---,0.00,VWS V14.01,2013-01-22 22:57:00,
2013-01-22 18:00:00,15.3,-2.7,30.15,West,275,3.0,8.0,44,0.00,,---,0.00,VWS V14.01,2013-01-22 23:00:00,
2013-01-22 18:02:00,15.2,-2.8,30.15,West,274,6.0,6.0,44,0.00,,---,0.00,VWS V14.01,2013-01-22 23:02:00,
2013-01-22 18:07:00,15.2,-2.8,30.15,WNW,299,2.0,6.0,44,0.00,,---,0.00,VWS V14.01,2013-01-22 23:07:00,
2013-01-22 18:12:00,15.2,-1.9,30.15,West,262,9.0,9.0,46,0.00,,---,0.00,VWS V14.01,2013-01-22 23:12:00,
2013-01-22 18:17:00,15.1,-2.0,30.15,WNW,302,4.0,9.0,46,0.00,,---,0.00,VWS V14.01,2013-01-22 23:17:00,
2013-01-22 18:22:00,15.1,-1.0,30.15,WNW,295,2.0,9.0,48,0.00,,---,0.00,VWS V14.01,2013-01-22 23:22:00,
2013-01-22 18:27:00,15.0,-0.3,30.15,West,273,2.0,9.0,50,0.00,,---,0.00,VWS V14.01,2013-01-22 23:27:00,
2013-01-22 18:30:00,15.0,0.2,30.15,West,276,4.0,9.0,51,0.00,,---,0.00,VWS V14.01,2013-01-22 23:30:00,
2013-01-22 18:32:00,15.0,0.6,30.15,WNW,285,5.0,6.0,52,0.00,,---,0.00,VWS V14.01,2013-01-22 23:32:00,
2013-01-22 18:37:00,14.9,0.5,30.15,WSW,242,1.0,6.0,52,0.00,,---,0.00,VWS V14.01,2013-01-22 23:37:00,
2013-01-22 18:42:00,14.8,0.0,30.15,WNW,283,1.0,6.0,51,0.00,,---,0.00,VWS V14.01,2013-01-22 23:42:00,
2013-01-22 18:47:00,14.7,0.7,30.15,NW,312,3.0,6.0,53,0.00,,---,0.00,VWS V14.01,2013-01-22 23:47:00,
2013-01-22 18:52:00,14.6,0.2,30.16,WNW,295,4.0,6.0,52,0.00,,---,0.00,VWS V14.01,2013-01-22 23:52:00,
2013-01-22 18:57:00,14.6,0.2,30.16,West,275,6.0,6.0,52,0.00,,---,0.00,VWS V14.01,2013-01-22 23:57:00,
2013-01-22 19:00:00,14.7,-0.1,30.16,NW,309,2.0,6.0,51,0.00,,---,0.00,VWS V14.01,2013-01-23 00:00:00,
2013-01-22 19:02:00,14.7,-0.1,30.16,WNW,293,4.0,4.0,51,0.00,,---,0.00,VWS V14.01,2013-01-23 00:02:00,
2013-01-22 19:07:00,14.6,-1.1,30.16,West,280,4.0,7.0,49,0.00,,---,0.00,VWS V14.01,2013-01-23 00:07:00,
2013-01-22 19:12:00,14.6,-0.2,30.16,West,262,5.0,7.0,51,0.00,,---,0.00,VWS V14.01,2013-01-23 00:12:00,
2013-01-22 19:17:00,14.7,-0.1,30.17,SSW,208,2.0,7.0,51,0.00,,---,0.00,VWS V14.01,2013-01-23 00:17:00,
2013-01-22 19:22:00,14.6,-2.4,30.16,West,271,4.0,8.0,46,0.00,,---,0.00,VWS V14.01,2013-01-23 00:22:00,
2013-01-22 19:27:00,14.5,-2.0,30.17,West,269,2.0,8.0,47,0.00,,---,0.00,VWS V14.01,2013-01-23 00:27:00,
2013-01-22 19:30:00,14.5,-2.0,30.17,West,270,3.0,8.0,47,0.00,,---,0.00,VWS V14.01,2013-01-23 00:30:00,
2013-01-22 19:32:00,14.5,-2.0,30.17,West,270,3.0,4.0,47,0.00,,---,0.00,VWS V14.01,2013-01-23 00:32:00,
2013-01-22 19:37:00,14.4,-2.6,30.17,NW,319,4.0,10.0,46,0.00,,---,0.00,VWS V14.01,2013-01-23 00:37:00,
2013-01-22 19:42:00,14.4,-2.1,30.17,SW,233,6.0,10.0,47,0.00,,---,0.00,VWS V14.01,2013-01-23 00:42:00,
2013-01-22 19:47:00,14.3,-2.2,30.17,West,262,6.0,10.0,47,0.00,,---,0.00,VWS V14.01,2013-01-23 00:47:00,
2013-01-22 19:52:00,14.3,-1.8,30.18,NW,316,3.0,10.0,48,0.00,,---,0.00,VWS V14.01,2013-01-23 00:52:00,
2013-01-22 19:57:00,14.3,-2.7,30.18,West,267,6.0,15.0,46,0.00,,---,0.00,VWS V14.01,2013-01-23 00:57:00,
2013-01-22 20:00:00,14.2,-3.2,30.18,West,278,1.0,15.0,45,0.00,,---,0.00,VWS V14.01,2013-01-23 01:00:00,
2013-01-22 20:02:00,14.2,-1.9,30.18,WNW,291,2.0,5.0,48,0.00,,---,0.00,VWS V14.01,2013-01-23 01:02:00,
2013-01-22 20:07:00,14.1,-3.3,30.18,NW,307,3.0,11.0,45,0.00,,---,0.00,VWS V14.01,2013-01-23 01:07:00,
2013-01-22 20:12:00,14.0,-3.0,30.18,NNW,331,2.0,12.0,46,0.00,,---,0.00,VWS V14.01,2013-01-23 01:12:00,
2013-01-22 20:17:00,13.9,-3.0,30.18,NW,312,2.0,12.0,46,0.00,,---,0.00,VWS V14.01,2013-01-23 01:17:00,
2013-01-22 20:22:00,13.8,-2.7,30.18,West,276,5.0,12.0,47,0.00,,---,0.00,VWS V14.01,2013-01-23 01:22:00,
2013-01-22 20:27:00,13.7,-2.8,30.19,NW,304,2.0,12.0,47,0.00,,---,0.00,VWS V14.01,2013-01-23 01:27:00,
2013-01-22 20:30:00,13.7,-1.9,30.19,WNW,300,3.0,12.0,49,0.00,,---,0.00,VWS V14.01,2013-01-23 01:30:00,
2013-01-22 20:32:00,13.7,-2.3,30.19,WNW,300,2.0,3.0,48,0.00,,---,0.00,VWS V14.01,2013-01-23 01:32:00,
2013-01-22 20:37:00,13.6,-2.4,30.19,West,272,2.0,6.0,48,0.00,,---,0.00,VWS V14.01,2013-01-23 01:37:00,
2013-01-22 20:42:00,13.5,-2.5,30.19,West,273,0.0,6.0,48,0.00,,---,0.00,VWS V14.01,2013-01-23 01:42:00,
2013-01-22 20:47:00,13.3,-2.3,30.19,WSW,253,1.0,6.0,49,0.00,,---,0.00,VWS V14.01,2013-01-23 01:47:00,
2013-01-22 20:52:00,13.3,-3.2,30.20,NW,311,1.0,13.0,47,0.00,,---,0.00,VWS V14.01,2013-01-23 01:52:00,
2013-01-22 20:57:00,13.2,-3.7,30.20,West,270,7.0,14.0,46,0.00,,---,0.00,VWS V14.01,2013-01-23 01:57:00,
2013-01-22 21:00:00,13.2,-3.2,30.20,NE,40,0.0,14.0,47,0.00,,---,0.00,VWS V14.01,2013-01-23 02:00:00,
2013-01-22 21:03:00,13.1,-2.5,30.20,WNW,302,9.0,9.0,49,0.00,,---,0.00,VWS V14.01,2013-01-23 02:03:00,
2013-01-22 21:08:00,13.0,-3.9,30.20,NW,310,7.0,9.0,46,0.00,,---,0.00,VWS V14.01,2013-01-23 02:08:00,
2013-01-22 21:13:00,12.9,-5.4,30.20,WSW,253,5.0,18.0,43,0.00,,---,0.00,VWS V14.01,2013-01-23 02:13:00,
2013-01-22 21:18:00,12.8,-5.5,30.20,West,270,7.0,18.0,43,0.00,,---,0.00,VWS V14.01,2013-01-23 02:18:00,
2013-01-22 21:23:00,12.6,-5.6,30.20,WNW,287,5.0,18.0,43,0.00,,---,0.00,VWS V14.01,2013-01-23 02:23:00,
2013-01-22 21:28:00,12.5,-5.7,30.21,WNW,294,4.0,18.0,43,0.00,,---,0.00,VWS V14.01,2013-01-23 02:28:00,
2013-01-22 21:30:00,12.5,-5.7,30.21,West,273,13.0,18.0,43,0.00,,---,0.00,VWS V14.01,2013-01-23 02:30:00,
2013-01-22 21:33:00,12.4,-6.8,30.21,NW,323,6.0,14.0,41,0.00,,---,0.00,VWS V14.01,2013-01-23 02:33:00,
2013-01-22 21:38:00,12.4,-5.8,30.21,West,281,8.0,14.0,43,0.00,,---,0.00,VWS V14.01,2013-01-23 02:38:00,
2013-01-22 21:43:00,12.3,-6.4,30.21,West,281,6.0,14.0,42,0.00,,---,0.00,VWS V14.01,2013-01-23 02:43:00,
2013-01-22 21:48:00,12.2,-7.0,30.21,West,277,3.0,14.0,41,0.00,,---,0.00,VWS V14.01,2013-01-23 02:48:00,
2013-01-22 21:53:00,12.1,-6.6,30.21,WNW,283,4.0,14.0,42,0.00,,---,0.00,VWS V14.01,2013-01-23 02:53:00,
2013-01-22 21:58:00,12.0,-6.2,30.21,West,278,2.0,14.0,43,0.00,,---,0.00,VWS V14.01,2013-01-23 02:58:00,
2013-01-22 22:00:00,12.0,-6.7,30.21,NW,307,2.0,14.0,42,0.00,,---,0.00,VWS V14.01,2013-01-23 03:00:00,
2013-01-22 22:03:00,12.0,-7.2,30.21,WSW,257,4.0,8.0,41,0.00,,---,0.00,VWS V14.01,2013-01-23 03:03:00,
2013-01-22 22:08:00,11.9,-7.3,30.21,WNW,293,11.0,12.0,41,0.00,,---,0.00,VWS V14.01,2013-01-23 03:08:00,
2013-01-22 22:13:00,11.9,-7.3,30.21,West,271,7.0,12.0,41,0.00,,---,0.00,VWS V14.01,2013-01-23 03:13:00,
2013-01-22 22:18:00,11.9,-6.3,30.22,West,263,3.0,12.0,43,0.00,,---,0.00,VWS V14.01,2013-01-23 03:18:00,
2013-01-22 22:23:00,11.8,-6.9,30.22,NW,321,4.0,12.0,42,0.00,,---,0.00,VWS V14.01,2013-01-23 03:23:00,
2013-01-22 22:28:00,11.7,-7.4,30.22,NW,304,3.0,12.0,41,0.00,,---,0.00,VWS V14.01,2013-01-23 03:28:00,
2013-01-22 22:30:00,11.7,-6.9,30.22,WNW,293,9.0,12.0,42,0.00,,---,0.00,VWS V14.01,2013-01-23 03:30:00,
2013-01-22 22:33:00,11.7,-6.9,30.22,WNW,303,6.0,9.0,42,0.00,,---,0.00,VWS V14.01,2013-01-23 03:33:00,
2013-01-22 22:38:00,11.6,-7.5,30.22,West,275,3.0,12.0,41,0.00,,---,0.00,VWS V14.01,2013-01-23 03:38:00,
2013-01-22 22:43:00,11.6,-7.0,30.22,North,11,0.0,12.0,42,0.00,,---,0.00,VWS V14.01,2013-01-23 03:43:00,
2013-01-22 22:48:00,11.5,-6.2,30.22,NNE,28,2.0,12.0,44,0.00,,---,0.00,VWS V14.01,2013-01-23 03:48:00,
2013-01-22 22:53:00,11.5,-6.2,30.22,SW,222,3.0,12.0,44,0.00,,---,0.00,VWS V14.01,2013-01-23 03:53:00,
2013-01-22 22:58:00,11.5,-6.2,30.22,West,264,6.0,12.0,44,0.00,,---,0.00,VWS V14.01,2013-01-23 03:58:00,
2013-01-22 23:00:00,11.5,-6.7,30.22,NW,309,2.0,12.0,43,0.00,,---,0.00,VWS V14.01,2013-01-23 04:00:00,
2013-01-22 23:03:00,11.4,-6.7,30.22,West,278,0.0,2.0,43,0.00,,---,0.00,VWS V14.01,2013-01-23 04:03:00,
2013-01-22 23:08:00,11.3,-5.9,30.22,WNW,282,2.0,4.0,45,0.00,,---,0.00,VWS V14.01,2013-01-23 04:08:00,
2013-01-22 23:13:00,11.3,-5.9,30.22,NW,319,1.0,7.0,45,0.00,,---,0.00,VWS V14.01,2013-01-23 04:13:00,
2013-01-22 23:18:00,11.2,-6.4,30.21,WSW,243,2.0,8.0,44,0.00,,---,0.00,VWS V14.01,2013-01-23 04:18:00,
2013-01-22 23:23:00,11.1,-6.5,30.22,NW,312,0.0,11.0,44,0.00,,---,0.00,VWS V14.01,2013-01-23 04:23:00,
2013-01-22 23:28:00,11.1,-5.6,30.21,WSW,252,5.0,11.0,46,0.00,,---,0.00,VWS V14.01,2013-01-23 04:28:00,
2013-01-22 23:30:00,11.1,-6.1,30.22,West,281,1.0,11.0,45,0.00,,---,0.00,VWS V14.01,2013-01-23 04:30:00,
2013-01-22 23:33:00,11.1,-5.6,30.21,SSE,152,1.0,8.0,46,0.00,,---,0.00,VWS V14.01,2013-01-23 04:33:00,
2013-01-22 23:38:00,11.0,-5.7,30.21,West,266,3.0,8.0,46,0.00,,---,0.00,VWS V14.01,2013-01-23 04:38:00,
2013-01-22 23:43:00,11.0,-5.3,30.21,SW,234,1.0,8.0,47,0.00,,---,0.00,VWS V14.01,2013-01-23 04:43:00,
2013-01-22 23:48:00,11.0,-6.2,30.21,WNW,291,3.0,11.0,45,0.00,,---,0.00,VWS V14.01,2013-01-23 04:48:00,
2013-01-22 23:53:00,11.0,-5.7,30.21,West,267,5.0,11.0,46,0.00,,---,0.00,VWS V14.01,2013-01-23 04:53:00,
2013-01-22 23:58:00,10.9,-4.5,30.21,WNW,294,1.0,11.0,49,0.00,,---,0.00,VWS V14.01,2013-01-23 04:58:00,